This is the latest recevied weather packets stored in our database for station/object WD4LSS. If no packets are shown the sender has not sent any weather packets the latest 10 day(s).
| Time | Temp. | Humidity | Pressure | Rain* | Wind** | Luminosity | Snow |
|---|---|---|---|---|---|---|---|
| 1777564216 | 19.44° C | 63% | 1011.5 hPa | 0 mm | - | - | - |
| 1777563918 | 19.44° C | 62% | 1011.5 hPa | 0 mm | - | - | - |
| 1777560637 | 17.22° C | 73% | 1011.9 hPa | 0 mm | - | - | - |
| 1777560017 | 16.67° C | 79% | 1011.8 hPa | 0 mm | - | - | - |
| 1777559117 | 15° C | 81% | 1011.8 hPa | 0 mm | - | - | - |
| 1777557637 | 13.89° C | 90% | 1011.6 hPa | 0 mm | - | - | - |
| 1777555518 | 13.33° C | 89% | 1012.3 hPa | 0 mm | - | - | - |
| 1777551317 | 12.78° C | 89% | 1011.8 hPa | 0 mm | - | - | - |
| 1777549817 | 13.33° C | 88% | 1011.3 hPa | 0 mm | - | - | - |
| 1777547117 | 12.78° C | 85% | 1010.5 hPa | 0 mm | - | - | - |
| 1777546537 | 12.22° C | 86% | 1010.4 hPa | 0 mm | - | - | - |
| 1777546237 | 12.22° C | 87% | 1010.3 hPa | 0 mm | - | - | - |
| 1777543531 | 12.22° C | 88% | 1010.1 hPa | 0 mm | - | - | - |
| 1777541130 | 12.78° C | 85% | 1010.3 hPa | 0 mm | - | - | - |
| 1777540831 | 13.33° C | 85% | 1010.6 hPa | 0 mm | - | - | - |
| 1777539330 | 13.89° C | 83% | 1010.4 hPa | 0 mm | - | - | - |
| 1777538131 | 14.44° C | 79% | 1010.5 hPa | 0 mm | - | - | - |
| 1777535416 | 15.56° C | 77% | 1009.9 hPa | 0 mm | - | - | - |
| 1777535116 | 15.56° C | 78% | 1010 hPa | 0 mm | - | - | - |
| 1777534836 | 15.56° C | 79% | 1009.7 hPa | 0 mm | - | - | - |
| 1777533917 | 15.56° C | 81% | 1009.5 hPa | 0 mm | - | - | - |
| 1777533020 | 15° C | 84% | 1009.4 hPa | 0 mm | - | - | - |
| 1777532120 | 14.44° C | 89% | 1009.4 hPa | 0 mm | - | - | - |
| 1777530621 | 14.44° C | 93% | 1009.7 hPa | 0 mm | - | - | - |
| 1777529416 | 14.44° C | 92% | 1009.8 hPa | 0 mm | - | - | - |
* Rain latest hour (hover to see other rain measurements)
** Current wind speed in m/s (hover to see current wind gust speed)